sensor_id;sensor_type;location;lat;lon;timestamp;P1;durP1;ratioP1;P2;durP2;ratioP2
3155;SDS011;1588;50.892;7.082;2023-06-26T00:00:43;11.20;;;6.87;;
3155;SDS011;1588;50.892;7.082;2023-06-26T00:06:09;14.80;;;7.13;;
3155;SDS011;1588;50.892;7.082;2023-06-26T00:11:15;12.60;;;7.43;;
3155;SDS011;1588;50.892;7.082;2023-06-26T00:16:38;10.90;;;7.40;;
3155;SDS011;1588;50.892;7.082;2023-06-26T00:22:02;11.00;;;6.90;;
3155;SDS011;1588;50.892;7.082;2023-06-26T00:27:24;10.60;;;7.00;;
3155;SDS011;1588;50.892;7.082;2023-06-26T00:32:27;10.97;;;7.60;;
3155;SDS011;1588;50.892;7.082;2023-06-26T00:37:31;15.53;;;8.33;;
3155;SDS011;1588;50.892;7.082;2023-06-26T00:42:52;10.77;;;7.50;;
3155;SDS011;1588;50.892;7.082;2023-06-26T00:47:54;12.13;;;7.70;;
3155;SDS011;1588;50.892;7.082;2023-06-26T00:53:16;12.13;;;7.77;;
3155;SDS011;1588;50.892;7.082;2023-06-26T00:58:38;11.73;;;8.27;;
3155;SDS011;1588;50.892;7.082;2023-06-26T01:03:59;12.17;;;7.90;;
3155;SDS011;1588;50.892;7.082;2023-06-26T01:09:10;12.33;;;8.10;;
3155;SDS011;1588;50.892;7.082;2023-06-26T01:14:13;11.57;;;7.60;;
3155;SDS011;1588;50.892;7.082;2023-06-26T01:19:18;11.23;;;7.93;;
3155;SDS011;1588;50.892;7.082;2023-06-26T01:24:51;12.90;;;7.97;;
3155;SDS011;1588;50.892;7.082;2023-06-26T01:30:03;9.67;;;7.57;;
3155;SDS011;1588;50.892;7.082;2023-06-26T01:35:26;11.23;;;7.60;;
3155;SDS011;1588;50.892;7.082;2023-06-26T01:40:29;9.83;;;7.10;;
3155;SDS011;1588;50.892;7.082;2023-06-26T01:45:54;12.90;;;7.47;;
3155;SDS011;1588;50.892;7.082;2023-06-26T01:51:18;11.27;;;7.63;;
3155;SDS011;1588;50.892;7.082;2023-06-26T01:56:48;9.33;;;7.20;;
3155;SDS011;1588;50.892;7.082;2023-06-26T02:01:55;12.07;;;7.90;;
3155;SDS011;1588;50.892;7.082;2023-06-26T02:07:16;12.50;;;8.03;;
3155;SDS011;1588;50.892;7.082;2023-06-26T02:12:37;11.07;;;7.70;;
3155;SDS011;1588;50.892;7.082;2023-06-26T02:18:01;12.50;;;7.80;;
3155;SDS011;1588;50.892;7.082;2023-06-26T02:23:23;18.47;;;8.10;;
3155;SDS011;1588;50.892;7.082;2023-06-26T02:28:46;13.33;;;7.83;;
3155;SDS011;1588;50.892;7.082;2023-06-26T02:34:10;11.00;;;7.60;;
3155;SDS011;1588;50.892;7.082;2023-06-26T02:39:33;13.67;;;8.20;;
3155;SDS011;1588;50.892;7.082;2023-06-26T02:44:53;10.07;;;7.20;;
3155;SDS011;1588;50.892;7.082;2023-06-26T02:50:05;16.30;;;8.60;;
3155;SDS011;1588;50.892;7.082;2023-06-26T02:55:08;13.87;;;8.40;;
3155;SDS011;1588;50.892;7.082;2023-06-26T03:00:46;15.27;;;8.33;;
3155;SDS011;1588;50.892;7.082;2023-06-26T03:05:50;13.97;;;8.13;;
3155;SDS011;1588;50.892;7.082;2023-06-26T03:10:54;13.33;;;8.70;;
3155;SDS011;1588;50.892;7.082;2023-06-26T03:15:59;11.93;;;7.80;;
3155;SDS011;1588;50.892;7.082;2023-06-26T03:21:10;13.07;;;8.80;;
3155;SDS011;1588;50.892;7.082;2023-06-26T03:26:13;11.87;;;7.93;;
3155;SDS011;1588;50.892;7.082;2023-06-26T03:31:15;16.17;;;8.90;;
3155;SDS011;1588;50.892;7.082;2023-06-26T03:36:19;13.70;;;8.93;;
3155;SDS011;1588;50.892;7.082;2023-06-26T03:41:23;13.57;;;8.17;;
3155;SDS011;1588;50.892;7.082;2023-06-26T03:46:26;15.00;;;8.47;;
3155;SDS011;1588;50.892;7.082;2023-06-26T03:51:32;14.50;;;8.20;;
3155;SDS011;1588;50.892;7.082;2023-06-26T03:56:34;13.00;;;8.67;;
3155;SDS011;1588;50.892;7.082;2023-06-26T04:01:41;14.80;;;9.07;;
3155;SDS011;1588;50.892;7.082;2023-06-26T04:06:49;18.77;;;9.10;;
3155;SDS011;1588;50.892;7.082;2023-06-26T04:11:52;12.77;;;7.93;;
3155;SDS011;1588;50.892;7.082;2023-06-26T04:16:55;12.67;;;8.20;;
3155;SDS011;1588;50.892;7.082;2023-06-26T04:21:59;11.40;;;7.10;;
3155;SDS011;1588;50.892;7.082;2023-06-26T04:27:02;9.73;;;6.43;;
3155;SDS011;1588;50.892;7.082;2023-06-26T04:32:05;16.03;;;6.57;;
3155;SDS011;1588;50.892;7.082;2023-06-26T04:37:09;11.00;;;6.40;;
3155;SDS011;1588;50.892;7.082;2023-06-26T04:42:14;14.13;;;6.00;;
3155;SDS011;1588;50.892;7.082;2023-06-26T04:47:16;12.73;;;6.00;;
3155;SDS011;1588;50.892;7.082;2023-06-26T04:52:20;10.93;;;6.17;;
3155;SDS011;1588;50.892;7.082;2023-06-26T04:57:22;8.33;;;5.73;;
3155;SDS011;1588;50.892;7.082;2023-06-26T05:02:24;9.37;;;5.93;;
3155;SDS011;1588;50.892;7.082;2023-06-26T05:07:32;8.70;;;5.53;;
3155;SDS011;1588;50.892;7.082;2023-06-26T05:12:34;9.83;;;5.07;;
3155;SDS011;1588;50.892;7.082;2023-06-26T05:17:37;8.90;;;5.13;;
3155;SDS011;1588;50.892;7.082;2023-06-26T05:22:40;7.07;;;4.73;;
3155;SDS011;1588;50.892;7.082;2023-06-26T05:27:43;10.63;;;4.83;;
3155;SDS011;1588;50.892;7.082;2023-06-26T05:32:46;11.13;;;4.60;;
3155;SDS011;1588;50.892;7.082;2023-06-26T05:37:56;10.20;;;4.57;;
3155;SDS011;1588;50.892;7.082;2023-06-26T05:43:04;15.90;;;5.83;;
3155;SDS011;1588;50.892;7.082;2023-06-26T05:48:07;10.73;;;4.90;;
3155;SDS011;1588;50.892;7.082;2023-06-26T05:53:32;6.30;;;3.83;;
3155;SDS011;1588;50.892;7.082;2023-06-26T05:58:55;11.83;;;4.20;;
3155;SDS011;1588;50.892;7.082;2023-06-26T06:04:17;7.67;;;4.70;;
3155;SDS011;1588;50.892;7.082;2023-06-26T06:09:41;11.03;;;4.83;;
3155;SDS011;1588;50.892;7.082;2023-06-26T06:15:02;6.87;;;4.20;;
3155;SDS011;1588;50.892;7.082;2023-06-26T06:20:09;12.97;;;4.30;;
3155;SDS011;1588;50.892;7.082;2023-06-26T06:25:32;9.30;;;4.33;;
3155;SDS011;1588;50.892;7.082;2023-06-26T06:30:54;12.90;;;4.20;;
3155;SDS011;1588;50.892;7.082;2023-06-26T06:36:17;9.97;;;4.20;;
3155;SDS011;1588;50.892;7.082;2023-06-26T06:41:20;17.33;;;4.30;;
3155;SDS011;1588;50.892;7.082;2023-06-26T06:46:41;8.33;;;4.47;;
3155;SDS011;1588;50.892;7.082;2023-06-26T06:51:47;9.47;;;4.57;;
3155;SDS011;1588;50.892;7.082;2023-06-26T06:57:11;7.63;;;4.77;;
3155;SDS011;1588;50.892;7.082;2023-06-26T07:02:14;18.57;;;4.40;;
3155;SDS011;1588;50.892;7.082;2023-06-26T07:07:18;31.80;;;3.90;;
3155;SDS011;1588;50.892;7.082;2023-06-26T07:12:22;7.90;;;3.70;;
3155;SDS011;1588;50.892;7.082;2023-06-26T07:17:24;5.47;;;3.20;;
3155;SDS011;1588;50.892;7.082;2023-06-26T07:22:45;9.00;;;3.90;;
3155;SDS011;1588;50.892;7.082;2023-06-26T07:28:11;9.20;;;3.47;;
3155;SDS011;1588;50.892;7.082;2023-06-26T07:33:34;9.40;;;4.10;;
3155;SDS011;1588;50.892;7.082;2023-06-26T07:38:56;8.70;;;3.63;;
3155;SDS011;1588;50.892;7.082;2023-06-26T07:44:21;6.90;;;3.50;;
3155;SDS011;1588;50.892;7.082;2023-06-26T07:49:44;14.70;;;4.33;;
3155;SDS011;1588;50.892;7.082;2023-06-26T07:55:06;9.53;;;5.07;;
3155;SDS011;1588;50.892;7.082;2023-06-26T08:00:31;11.00;;;4.37;;
3155;SDS011;1588;50.892;7.082;2023-06-26T08:05:53;5.40;;;4.30;;
3155;SDS011;1588;50.892;7.082;2023-06-26T08:11:16;16.90;;;4.83;;
3155;SDS011;1588;50.892;7.082;2023-06-26T08:16:40;12.40;;;5.43;;
3155;SDS011;1588;50.892;7.082;2023-06-26T08:22:05;9.23;;;4.30;;
3155;SDS011;1588;50.892;7.082;2023-06-26T08:27:27;14.27;;;5.10;;
3155;SDS011;1588;50.892;7.082;2023-06-26T08:32:51;7.83;;;4.33;;
3155;SDS011;1588;50.892;7.082;2023-06-26T08:38:13;10.73;;;4.80;;
3155;SDS011;1588;50.892;7.082;2023-06-26T08:43:38;18.17;;;4.27;;
3155;SDS011;1588;50.892;7.082;2023-06-26T08:49:04;10.83;;;4.20;;
3155;SDS011;1588;50.892;7.082;2023-06-26T08:54:42;11.57;;;3.90;;
3155;SDS011;1588;50.892;7.082;2023-06-26T09:00:08;10.40;;;4.50;;
3155;SDS011;1588;50.892;7.082;2023-06-26T09:05:36;8.37;;;4.30;;
3155;SDS011;1588;50.892;7.082;2023-06-26T09:10:58;12.03;;;4.27;;
3155;SDS011;1588;50.892;7.082;2023-06-26T09:16:23;12.43;;;3.70;;
3155;SDS011;1588;50.892;7.082;2023-06-26T09:21:48;7.63;;;3.60;;
3155;SDS011;1588;50.892;7.082;2023-06-26T09:27:12;9.17;;;4.20;;
3155;SDS011;1588;50.892;7.082;2023-06-26T09:32:35;10.10;;;3.83;;
3155;SDS011;1588;50.892;7.082;2023-06-26T09:37:59;7.47;;;4.13;;
3155;SDS011;1588;50.892;7.082;2023-06-26T09:43:21;9.10;;;4.40;;
3155;SDS011;1588;50.892;7.082;2023-06-26T09:48:45;8.83;;;4.60;;
3155;SDS011;1588;50.892;7.082;2023-06-26T09:54:10;8.97;;;3.53;;
3155;SDS011;1588;50.892;7.082;2023-06-26T09:59:32;7.17;;;3.00;;
3155;SDS011;1588;50.892;7.082;2023-06-26T10:04:56;7.57;;;3.13;;
3155;SDS011;1588;50.892;7.082;2023-06-26T10:10:20;4.70;;;3.07;;
3155;SDS011;1588;50.892;7.082;2023-06-26T10:15:44;7.00;;;3.37;;
3155;SDS011;1588;50.892;7.082;2023-06-26T10:21:08;7.43;;;2.87;;
3155;SDS011;1588;50.892;7.082;2023-06-26T10:26:35;7.57;;;3.10;;
3155;SDS011;1588;50.892;7.082;2023-06-26T10:32:04;7.00;;;3.03;;
3155;SDS011;1588;50.892;7.082;2023-06-26T10:43:12;8.10;;;3.33;;
3155;SDS011;1588;50.892;7.082;2023-06-26T10:48:38;8.40;;;3.33;;
3155;SDS011;1588;50.892;7.082;2023-06-26T10:54:19;6.43;;;3.40;;
3155;SDS011;1588;50.892;7.082;2023-06-26T10:59:43;4.33;;;2.90;;
3155;SDS011;1588;50.892;7.082;2023-06-26T11:05:06;4.60;;;2.73;;
3155;SDS011;1588;50.892;7.082;2023-06-26T11:10:29;5.40;;;3.00;;
3155;SDS011;1588;50.892;7.082;2023-06-26T11:15:53;12.30;;;2.90;;
3155;SDS011;1588;50.892;7.082;2023-06-26T11:21:17;5.90;;;2.60;;
3155;SDS011;1588;50.892;7.082;2023-06-26T11:26:44;13.30;;;3.00;;
3155;SDS011;1588;50.892;7.082;2023-06-26T11:32:09;6.93;;;3.30;;
3155;SDS011;1588;50.892;7.082;2023-06-26T11:37:32;5.03;;;2.53;;
3155;SDS011;1588;50.892;7.082;2023-06-26T11:42:54;8.33;;;2.70;;
3155;SDS011;1588;50.892;7.082;2023-06-26T11:48:18;7.60;;;3.30;;
3155;SDS011;1588;50.892;7.082;2023-06-26T11:53:42;4.40;;;2.33;;
3155;SDS011;1588;50.892;7.082;2023-06-26T11:59:06;2.47;;;2.20;;
3155;SDS011;1588;50.892;7.082;2023-06-26T12:04:33;5.57;;;3.00;;
3155;SDS011;1588;50.892;7.082;2023-06-26T12:09:57;9.50;;;3.10;;
3155;SDS011;1588;50.892;7.082;2023-06-26T12:15:00;3.73;;;2.10;;
3155;SDS011;1588;50.892;7.082;2023-06-26T12:20:16;6.43;;;3.47;;
3155;SDS011;1588;50.892;7.082;2023-06-26T12:25:22;7.00;;;2.40;;
3155;SDS011;1588;50.892;7.082;2023-06-26T12:30:25;4.40;;;2.70;;
3155;SDS011;1588;50.892;7.082;2023-06-26T12:35:29;3.67;;;2.33;;
3155;SDS011;1588;50.892;7.082;2023-06-26T12:40:35;5.20;;;2.30;;
3155;SDS011;1588;50.892;7.082;2023-06-26T12:45:46;2.80;;;2.27;;
3155;SDS011;1588;50.892;7.082;2023-06-26T12:50:50;2.90;;;2.10;;
3155;SDS011;1588;50.892;7.082;2023-06-26T12:55:55;7.80;;;2.47;;
3155;SDS011;1588;50.892;7.082;2023-06-26T13:00:58;8.10;;;2.53;;
3155;SDS011;1588;50.892;7.082;2023-06-26T13:06:04;8.10;;;2.20;;
3155;SDS011;1588;50.892;7.082;2023-06-26T13:11:18;5.50;;;2.40;;
3155;SDS011;1588;50.892;7.082;2023-06-26T13:16:24;3.40;;;1.70;;
3155;SDS011;1588;50.892;7.082;2023-06-26T13:21:28;9.57;;;2.33;;
3155;SDS011;1588;50.892;7.082;2023-06-26T13:26:34;7.03;;;2.07;;
3155;SDS011;1588;50.892;7.082;2023-06-26T13:31:42;6.57;;;1.90;;
3155;SDS011;1588;50.892;7.082;2023-06-26T13:37:05;7.60;;;1.90;;
3155;SDS011;1588;50.892;7.082;2023-06-26T13:42:08;4.83;;;1.57;;
3155;SDS011;1588;50.892;7.082;2023-06-26T13:47:11;5.70;;;1.50;;
3155;SDS011;1588;50.892;7.082;2023-06-26T13:52:16;4.53;;;2.20;;
3155;SDS011;1588;50.892;7.082;2023-06-26T13:57:19;6.03;;;2.00;;
3155;SDS011;1588;50.892;7.082;2023-06-26T14:02:23;7.77;;;1.63;;
3155;SDS011;1588;50.892;7.082;2023-06-26T14:07:28;23.33;;;2.10;;
3155;SDS011;1588;50.892;7.082;2023-06-26T14:12:32;17.80;;;2.20;;
3155;SDS011;1588;50.892;7.082;2023-06-26T14:17:35;39.93;;;3.37;;
3155;SDS011;1588;50.892;7.082;2023-06-26T14:22:42;2.80;;;1.90;;
3155;SDS011;1588;50.892;7.082;2023-06-26T14:27:45;9.03;;;2.10;;
3155;SDS011;1588;50.892;7.082;2023-06-26T14:32:47;7.40;;;1.30;;
3155;SDS011;1588;50.892;7.082;2023-06-26T14:37:51;3.30;;;1.60;;
3155;SDS011;1588;50.892;7.082;2023-06-26T14:42:54;2.00;;;1.57;;
3155;SDS011;1588;50.892;7.082;2023-06-26T14:47:56;22.70;;;3.13;;
3155;SDS011;1588;50.892;7.082;2023-06-26T14:53:00;2.50;;;1.70;;
3155;SDS011;1588;50.892;7.082;2023-06-26T14:58:03;7.43;;;1.90;;
3155;SDS011;1588;50.892;7.082;2023-06-26T15:03:05;3.03;;;1.47;;
3155;SDS011;1588;50.892;7.082;2023-06-26T15:08:09;11.93;;;2.07;;
3155;SDS011;1588;50.892;7.082;2023-06-26T15:13:11;4.00;;;1.77;;
3155;SDS011;1588;50.892;7.082;2023-06-26T15:18:17;5.73;;;2.03;;
3155;SDS011;1588;50.892;7.082;2023-06-26T15:23:21;15.33;;;2.10;;
3155;SDS011;1588;50.892;7.082;2023-06-26T15:28:23;7.30;;;2.30;;
3155;SDS011;1588;50.892;7.082;2023-06-26T15:33:35;3.53;;;1.73;;
3155;SDS011;1588;50.892;7.082;2023-06-26T15:38:39;2.90;;;1.80;;
3155;SDS011;1588;50.892;7.082;2023-06-26T15:43:41;6.97;;;2.10;;
3155;SDS011;1588;50.892;7.082;2023-06-26T15:48:45;10.00;;;2.00;;
3155;SDS011;1588;50.892;7.082;2023-06-26T15:53:49;13.43;;;1.57;;
3155;SDS011;1588;50.892;7.082;2023-06-26T15:58:54;6.20;;;1.67;;
3155;SDS011;1588;50.892;7.082;2023-06-26T16:03:59;5.00;;;1.90;;
3155;SDS011;1588;50.892;7.082;2023-06-26T16:09:06;3.73;;;1.40;;
3155;SDS011;1588;50.892;7.082;2023-06-26T16:14:09;5.67;;;1.60;;
3155;SDS011;1588;50.892;7.082;2023-06-26T16:19:13;7.73;;;1.83;;
3155;SDS011;1588;50.892;7.082;2023-06-26T16:24:17;4.17;;;1.63;;
3155;SDS011;1588;50.892;7.082;2023-06-26T16:29:25;1.47;;;1.33;;
3155;SDS011;1588;50.892;7.082;2023-06-26T16:34:30;2.47;;;1.50;;
3155;SDS011;1588;50.892;7.082;2023-06-26T16:39:34;3.97;;;1.80;;
3155;SDS011;1588;50.892;7.082;2023-06-26T16:44:37;26.03;;;2.77;;
3155;SDS011;1588;50.892;7.082;2023-06-26T16:49:40;5.43;;;1.70;;
3155;SDS011;1588;50.892;7.082;2023-06-26T16:54:44;10.00;;;2.07;;
3155;SDS011;1588;50.892;7.082;2023-06-26T16:59:46;17.80;;;2.37;;
3155;SDS011;1588;50.892;7.082;2023-06-26T17:04:49;3.17;;;1.80;;
3155;SDS011;1588;50.892;7.082;2023-06-26T17:09:54;16.80;;;2.30;;
3155;SDS011;1588;50.892;7.082;2023-06-26T17:14:56;8.73;;;1.67;;
3155;SDS011;1588;50.892;7.082;2023-06-26T17:20:09;2.30;;;1.73;;
3155;SDS011;1588;50.892;7.082;2023-06-26T17:25:16;7.70;;;1.77;;
3155;SDS011;1588;50.892;7.082;2023-06-26T17:30:18;5.27;;;2.27;;
3155;SDS011;1588;50.892;7.082;2023-06-26T17:35:21;2.10;;;1.20;;
3155;SDS011;1588;50.892;7.082;2023-06-26T17:40:24;4.50;;;1.60;;
3155;SDS011;1588;50.892;7.082;2023-06-26T17:45:27;2.83;;;1.73;;
3155;SDS011;1588;50.892;7.082;2023-06-26T17:50:30;2.23;;;1.57;;
3155;SDS011;1588;50.892;7.082;2023-06-26T17:55:34;2.20;;;1.63;;
3155;SDS011;1588;50.892;7.082;2023-06-26T18:00:36;3.33;;;1.60;;
3155;SDS011;1588;50.892;7.082;2023-06-26T18:05:38;1.47;;;1.37;;
3155;SDS011;1588;50.892;7.082;2023-06-26T18:10:42;6.30;;;3.00;;
3155;SDS011;1588;50.892;7.082;2023-06-26T18:15:44;6.57;;;1.63;;
3155;SDS011;1588;50.892;7.082;2023-06-26T18:20:46;4.00;;;2.50;;
3155;SDS011;1588;50.892;7.082;2023-06-26T18:25:50;4.60;;;1.30;;
3155;SDS011;1588;50.892;7.082;2023-06-26T18:30:52;1.73;;;1.30;;
3155;SDS011;1588;50.892;7.082;2023-06-26T18:35:55;3.00;;;1.50;;
3155;SDS011;1588;50.892;7.082;2023-06-26T18:40:58;6.27;;;1.87;;
3155;SDS011;1588;50.892;7.082;2023-06-26T18:46:01;6.83;;;1.67;;
3155;SDS011;1588;50.892;7.082;2023-06-26T18:51:03;8.03;;;1.80;;
3155;SDS011;1588;50.892;7.082;2023-06-26T18:56:07;6.70;;;1.90;;
3155;SDS011;1588;50.892;7.082;2023-06-26T19:01:09;2.17;;;1.40;;
3155;SDS011;1588;50.892;7.082;2023-06-26T19:06:11;3.67;;;1.40;;
3155;SDS011;1588;50.892;7.082;2023-06-26T19:11:15;2.53;;;1.40;;
3155;SDS011;1588;50.892;7.082;2023-06-26T19:16:18;2.50;;;1.50;;
3155;SDS011;1588;50.892;7.082;2023-06-26T19:21:21;3.60;;;1.90;;
3155;SDS011;1588;50.892;7.082;2023-06-26T19:26:29;2.90;;;1.63;;
3155;SDS011;1588;50.892;7.082;2023-06-26T19:31:35;8.23;;;1.73;;
3155;SDS011;1588;50.892;7.082;2023-06-26T19:36:37;2.63;;;1.97;;
3155;SDS011;1588;50.892;7.082;2023-06-26T19:41:47;4.37;;;1.80;;
3155;SDS011;1588;50.892;7.082;2023-06-26T19:46:52;3.90;;;2.10;;
3155;SDS011;1588;50.892;7.082;2023-06-26T19:51:55;2.60;;;1.43;;
3155;SDS011;1588;50.892;7.082;2023-06-26T19:56:58;3.20;;;1.70;;
3155;SDS011;1588;50.892;7.082;2023-06-26T20:02:01;1.63;;;1.53;;
3155;SDS011;1588;50.892;7.082;2023-06-26T20:07:03;2.03;;;1.57;;
3155;SDS011;1588;50.892;7.082;2023-06-26T20:12:08;2.70;;;1.53;;
3155;SDS011;1588;50.892;7.082;2023-06-26T20:17:10;2.50;;;1.40;;
3155;SDS011;1588;50.892;7.082;2023-06-26T20:22:13;3.00;;;1.23;;
3155;SDS011;1588;50.892;7.082;2023-06-26T20:27:17;3.37;;;1.83;;
3155;SDS011;1588;50.892;7.082;2023-06-26T20:32:19;6.93;;;2.40;;
3155;SDS011;1588;50.892;7.082;2023-06-26T20:37:21;2.33;;;1.30;;
3155;SDS011;1588;50.892;7.082;2023-06-26T20:42:28;4.27;;;1.90;;
3155;SDS011;1588;50.892;7.082;2023-06-26T20:47:31;1.50;;;1.40;;
3155;SDS011;1588;50.892;7.082;2023-06-26T20:52:41;2.97;;;1.97;;
3155;SDS011;1588;50.892;7.082;2023-06-26T20:57:46;3.43;;;2.30;;
3155;SDS011;1588;50.892;7.082;2023-06-26T21:02:48;2.03;;;1.63;;
3155;SDS011;1588;50.892;7.082;2023-06-26T21:07:51;5.17;;;1.47;;
3155;SDS011;1588;50.892;7.082;2023-06-26T21:12:56;6.00;;;1.40;;
3155;SDS011;1588;50.892;7.082;2023-06-26T21:17:58;2.87;;;1.80;;
3155;SDS011;1588;50.892;7.082;2023-06-26T21:23:00;1.83;;;1.70;;
3155;SDS011;1588;50.892;7.082;2023-06-26T21:28:27;5.33;;;2.00;;
3155;SDS011;1588;50.892;7.082;2023-06-26T21:33:32;3.73;;;1.80;;
3155;SDS011;1588;50.892;7.082;2023-06-26T21:38:35;3.33;;;1.87;;
3155;SDS011;1588;50.892;7.082;2023-06-26T21:43:38;6.27;;;1.67;;
3155;SDS011;1588;50.892;7.082;2023-06-26T21:48:43;2.73;;;2.00;;
3155;SDS011;1588;50.892;7.082;2023-06-26T21:53:46;3.33;;;2.10;;
3155;SDS011;1588;50.892;7.082;2023-06-26T21:58:50;3.43;;;1.87;;
3155;SDS011;1588;50.892;7.082;2023-06-26T22:03:52;16.47;;;2.50;;
3155;SDS011;1588;50.892;7.082;2023-06-26T22:08:57;3.40;;;2.33;;
3155;SDS011;1588;50.892;7.082;2023-06-26T22:14:05;1.60;;;1.40;;
3155;SDS011;1588;50.892;7.082;2023-06-26T22:19:07;5.03;;;1.90;;
3155;SDS011;1588;50.892;7.082;2023-06-26T22:24:09;13.13;;;3.80;;
3155;SDS011;1588;50.892;7.082;2023-06-26T22:29:13;5.27;;;2.60;;
3155;SDS011;1588;50.892;7.082;2023-06-26T22:34:15;10.97;;;2.07;;
3155;SDS011;1588;50.892;7.082;2023-06-26T22:39:17;6.70;;;1.80;;
3155;SDS011;1588;50.892;7.082;2023-06-26T22:44:21;9.10;;;2.30;;
3155;SDS011;1588;50.892;7.082;2023-06-26T22:49:23;3.63;;;1.73;;
3155;SDS011;1588;50.892;7.082;2023-06-26T22:54:26;6.77;;;1.90;;
3155;SDS011;1588;50.892;7.082;2023-06-26T22:59:29;2.47;;;2.10;;
3155;SDS011;1588;50.892;7.082;2023-06-26T23:04:33;7.27;;;2.43;;
3155;SDS011;1588;50.892;7.082;2023-06-26T23:09:35;4.63;;;2.13;;
3155;SDS011;1588;50.892;7.082;2023-06-26T23:14:39;3.13;;;1.90;;
3155;SDS011;1588;50.892;7.082;2023-06-26T23:19:41;4.63;;;1.80;;
3155;SDS011;1588;50.892;7.082;2023-06-26T23:24:43;4.30;;;2.10;;
3155;SDS011;1588;50.892;7.082;2023-06-26T23:29:47;6.40;;;2.30;;
3155;SDS011;1588;50.892;7.082;2023-06-26T23:34:49;3.97;;;2.10;;
3155;SDS011;1588;50.892;7.082;2023-06-26T23:39:51;11.00;;;1.90;;
3155;SDS011;1588;50.892;7.082;2023-06-26T23:44:55;4.70;;;2.20;;
3155;SDS011;1588;50.892;7.082;2023-06-26T23:49:59;5.93;;;2.33;;
3155;SDS011;1588;50.892;7.082;2023-06-26T23:55:02;2.40;;;2.20;;
